Newtown, Indiana
Current Conditions -  °F | °C
As of 2:54 AM on Saturday 25 Oct 2014 (Local Time) from KLAF Reporting Station
Overcast Overcast  
Wind Chill: 13°   Ceiling: 4100
Heat Index: 13°   Visibility: 8mi
Dew Point: 11°   Wind: 0mph
Humidity: 89%   Direction: NA
Pressure: 29.96"   Gusts: NA
Location:  40.2°N, 87.15°W
Report Text: KLAF 250654Z AUTO 00000KT 8SM OVC041 13/11 A2996 RMK AO2 RAB36E45 SLP142 P0000 T01280111 TSNO
Loading
Personal Weather Stations






























Interactive Weather Map
Tropical Storm Tracking
New forecast layout! Learn more

10-Day Weather Forecast

Advertisements
Track Severe Weather on mobile